createdAt,value
2018-06-17T00:00:46.589Z,24.58
2018-06-17T00:01:46.107Z,24.66
2018-06-17T00:02:46.397Z,24.65
2018-06-17T00:03:46.409Z,24.6
2018-06-17T00:04:46.455Z,24.54
2018-06-17T00:05:46.217Z,24.55
2018-06-17T00:06:46.512Z,24.55
2018-06-17T00:07:46.537Z,24.54
2018-06-17T00:08:46.551Z,24.48
2018-06-17T00:09:46.863Z,24.53
2018-06-17T00:10:46.857Z,24.5
2018-06-17T00:11:46.895Z,24.42
2018-06-17T00:12:46.915Z,24.45
2018-06-17T00:13:46.675Z,24.45
2018-06-17T00:14:46.964Z,24.47
2018-06-17T00:15:46.998Z,24.42
2018-06-17T00:16:46.752Z,24.42
2018-06-17T00:17:46.500Z,24.36
2018-06-17T00:18:47.098Z,24.36
2018-06-17T00:19:59.833Z,24.36
2018-06-17T00:20:47.132Z,24.32
2018-06-17T00:21:46.603Z,24.3
2018-06-17T00:22:47.205Z,24.32
2018-06-17T00:23:47.201Z,24.3
2018-06-17T00:24:47.211Z,24.26
2018-06-17T00:25:47.262Z,24.28
2018-06-17T00:26:47.013Z,24.16
2018-06-17T00:27:47.302Z,24.2
2018-06-17T00:28:47.351Z,24.2
2018-06-17T00:29:47.364Z,24.17
2018-06-17T00:30:47.384Z,24.14
2018-06-17T00:31:47.420Z,24.08
2018-06-17T00:32:47.167Z,24.1
2018-06-17T00:33:47.179Z,24.08
2018-06-17T00:34:47.481Z,24.03
2018-06-17T00:35:47.534Z,24.03
2018-06-17T00:36:47.537Z,24.02
2018-06-17T00:37:47.564Z,23.95
2018-06-17T00:38:47.587Z,23.96
2018-06-17T00:39:47.593Z,23.93
2018-06-17T00:40:47.359Z,23.96
2018-06-17T00:41:47.662Z,23.91
2018-06-17T00:42:47.685Z,23.91
2018-06-17T00:43:47.168Z,23.87
2018-06-17T00:44:47.729Z,23.88
2018-06-17T00:45:47.761Z,23.81
2018-06-17T00:46:47.790Z,23.78
2018-06-17T00:47:47.572Z,23.8
2018-06-17T00:48:47.859Z,23.8
2018-06-17T00:49:47.869Z,23.76
2018-06-17T00:50:47.362Z,23.74
2018-06-17T00:51:47.918Z,23.8
2018-06-17T00:52:47.944Z,23.77
2018-06-17T00:53:47.986Z,23.78
2018-06-17T00:54:48.000Z,23.78
2018-06-17T00:55:47.731Z,23.73
2018-06-17T00:56:48.030Z,23.74
2018-06-17T00:57:47.798Z,23.69
2018-06-17T00:58:47.816Z,23.66
2018-06-17T00:59:47.849Z,23.71
2018-06-17T01:00:47.880Z,23.74
2018-06-17T01:01:47.900Z,23.66
2018-06-17T01:02:48.182Z,23.63
2018-06-17T01:03:48.217Z,23.58
2018-06-17T01:04:47.969Z,23.62
2018-06-17T01:05:48.272Z,23.59
2018-06-17T01:06:48.010Z,23.58
2018-06-17T01:07:48.315Z,23.55
2018-06-17T01:08:48.089Z,23.5
2018-06-17T01:09:48.352Z,23.46
2018-06-17T01:10:48.114Z,23.47
2018-06-17T01:11:48.415Z,23.55
2018-06-17T01:12:48.460Z,23.5
2018-06-17T01:13:48.217Z,23.47
2018-06-17T01:14:48.491Z,23.37
2018-06-17T01:15:48.521Z,23.41
2018-06-17T01:16:48.316Z,23.39
2018-06-17T01:17:48.579Z,23.36
2018-06-17T01:18:48.613Z,23.4
2018-06-17T01:19:48.360Z,23.32
2018-06-17T01:20:48.360Z,23.28
2018-06-17T01:21:48.399Z,23.23
2018-06-17T01:22:48.702Z,23.24
2018-06-17T01:23:48.723Z,23.24
2018-06-17T01:24:48.772Z,23.31
2018-06-17T01:25:48.763Z,23.23
2018-06-17T01:26:48.811Z,23.24
2018-06-17T01:27:48.823Z,23.15
2018-06-17T01:28:48.836Z,23.2
2018-06-17T01:29:48.850Z,23.09
2018-06-17T01:30:48.890Z,23.06
2018-06-17T01:31:48.919Z,23.08
2018-06-17T01:32:48.953Z,23.18
2018-06-17T01:33:48.980Z,23.08
2018-06-17T01:34:48.988Z,23.05
2018-06-17T01:35:49.007Z,22.99
2018-06-17T01:36:49.040Z,22.93
2018-06-17T01:37:48.795Z,23
2018-06-17T01:38:49.089Z,23.02
2018-06-17T01:39:49.120Z,22.99
2018-06-17T01:40:49.141Z,22.99
2018-06-17T01:41:49.146Z,22.91
2018-06-17T01:42:49.215Z,22.94
2018-06-17T01:43:49.223Z,22.93
2018-06-17T01:44:48.968Z,22.87
2018-06-17T01:45:48.722Z,22.9
2018-06-17T01:46:49.273Z,22.87
2018-06-17T01:47:49.348Z,22.85
2018-06-17T01:48:49.067Z,22.85
2018-06-17T01:49:49.112Z,22.83
2018-06-17T01:50:49.211Z,22.8
2018-06-17T01:51:49.479Z,22.83
2018-06-17T01:52:49.171Z,22.72
2018-06-17T01:53:49.197Z,22.69
2018-06-17T01:54:49.220Z,22.7
2018-06-17T01:55:49.224Z,22.7
2018-06-17T01:56:49.542Z,22.7
2018-06-17T01:57:49.562Z,22.66
2018-06-17T01:58:49.582Z,22.63
2018-06-17T01:59:49.346Z,22.6
2018-06-17T02:00:49.353Z,22.57
2018-06-17T02:01:49.677Z,22.62
2018-06-17T02:02:49.669Z,22.65
2018-06-17T02:03:49.714Z,22.62
2018-06-17T02:04:49.741Z,22.54
2018-06-17T02:05:49.771Z,22.55
2018-06-17T02:06:49.564Z,22.48
2018-06-17T02:07:49.909Z,22.54
2018-06-17T02:08:49.554Z,22.5
2018-06-17T02:09:49.851Z,22.44
2018-06-17T02:10:49.617Z,22.55
2018-06-17T02:11:49.916Z,22.57
2018-06-17T02:12:49.926Z,22.5
2018-06-17T02:13:49.927Z,22.41
2018-06-17T02:14:49.990Z,22.47
2018-06-17T02:15:49.979Z,22.51
2018-06-17T02:16:50.006Z,22.5
2018-06-17T02:17:49.514Z,22.48
2018-06-17T02:18:50.079Z,22.48
2018-06-17T02:19:50.096Z,22.38
2018-06-17T02:20:49.846Z,22.39
2018-06-17T02:21:49.882Z,22.35
2018-06-17T02:22:50.176Z,22.36
2018-06-17T02:23:49.939Z,22.41
2018-06-17T02:24:49.946Z,22.32
2018-06-17T02:25:49.967Z,22.32
2018-06-17T02:26:50.254Z,22.29
2018-06-17T02:27:50.282Z,22.3
2018-06-17T02:28:50.309Z,22.28
2018-06-17T02:29:50.333Z,22.23
2018-06-17T02:30:50.371Z,22.23
2018-06-17T02:31:50.130Z,22.15
2018-06-17T02:32:50.142Z,22.26
2018-06-17T02:33:50.455Z,22.29
2018-06-17T02:34:50.461Z,22.22
2018-06-17T02:35:50.231Z,22.17
2018-06-17T02:36:50.527Z,22.13
2018-06-17T02:37:50.528Z,22.17
2018-06-17T02:38:50.290Z,22.18
2018-06-17T02:39:50.322Z,22.06
2018-06-17T02:40:50.333Z,22.02
2018-06-17T02:41:50.631Z,22.06
2018-06-17T02:42:50.644Z,21.98
2018-06-17T02:43:50.685Z,22.02
2018-06-17T02:44:50.425Z,22
2018-06-17T02:45:50.737Z,22.02
2018-06-17T02:46:50.489Z,22.02
2018-06-17T02:47:50.759Z,22.02
2018-06-17T02:48:50.790Z,21.98
2018-06-17T02:49:50.812Z,22.02
2018-06-17T02:50:50.825Z,21.99
2018-06-17T02:51:50.876Z,22
2018-06-17T02:52:50.637Z,21.91
2018-06-17T02:53:50.368Z,21.85
2018-06-17T02:54:50.944Z,21.89
2018-06-17T02:55:50.700Z,21.77
2018-06-17T02:56:50.728Z,21.82
2018-06-17T02:57:50.999Z,21.82
2018-06-17T02:58:51.029Z,21.83
2018-06-17T02:59:51.077Z,21.8
2018-06-17T03:00:51.102Z,21.76
2018-06-17T03:01:51.119Z,21.8
2018-06-17T03:02:51.154Z,21.83
2018-06-17T03:03:50.935Z,21.82
2018-06-17T03:04:50.902Z,21.7
2018-06-17T03:05:51.203Z,21.69
2018-06-17T03:06:51.212Z,21.72
2018-06-17T03:07:51.243Z,21.69
2018-06-17T03:08:51.005Z,21.69
2018-06-17T03:09:51.288Z,21.61
2018-06-17T03:10:51.051Z,21.58
2018-06-17T03:11:51.326Z,21.57
2018-06-17T03:12:51.376Z,21.62
2018-06-17T03:13:51.413Z,21.61
2018-06-17T03:14:51.146Z,21.61
2018-06-17T03:15:51.455Z,21.61
2018-06-17T03:16:51.475Z,21.64
2018-06-17T03:17:51.522Z,21.58
2018-06-17T03:18:51.230Z,21.55
2018-06-17T03:19:51.269Z,21.55
2018-06-17T03:20:51.562Z,21.57
2018-06-17T03:21:51.584Z,21.55
2018-06-17T03:22:51.061Z,21.57
2018-06-17T03:23:51.692Z,21.54
2018-06-17T03:24:51.860Z,21.51
2018-06-17T03:25:51.684Z,21.52
2018-06-17T03:26:51.457Z,21.5
2018-06-17T03:27:51.708Z,21.46
2018-06-17T03:28:51.748Z,21.39
2018-06-17T03:29:51.767Z,21.46
2018-06-17T03:30:51.515Z,21.45
2018-06-17T03:31:51.818Z,21.43
2018-06-17T03:32:51.827Z,21.43
2018-06-17T03:33:51.846Z,21.48
2018-06-17T03:34:51.357Z,21.36
2018-06-17T03:35:51.908Z,21.36
2018-06-17T03:36:51.923Z,21.39
2018-06-17T03:37:51.947Z,21.4
2018-06-17T03:38:51.984Z,21.36
2018-06-17T03:39:51.997Z,21.36
2018-06-17T03:40:52.044Z,21.42
2018-06-17T03:41:51.770Z,21.39
2018-06-17T03:42:52.092Z,21.4
2018-06-17T03:43:52.107Z,21.43
2018-06-17T03:44:52.140Z,21.39
2018-06-17T03:45:52.136Z,21.3
2018-06-17T03:46:52.183Z,21.36
2018-06-17T03:47:51.918Z,21.3
2018-06-17T03:48:51.957Z,21.33
2018-06-17T03:49:51.708Z,21.25
2018-06-17T03:50:52.249Z,21.36
2018-06-17T03:51:52.288Z,21.27
2018-06-17T03:52:52.044Z,21.27
2018-06-17T03:53:52.330Z,21.24
2018-06-17T03:54:52.341Z,21.39
2018-06-17T03:55:52.104Z,21.29
2018-06-17T03:56:52.397Z,21.22
2018-06-17T03:57:52.417Z,21.25
2018-06-17T03:58:52.178Z,21.27
2018-06-17T03:59:52.494Z,21.22
2018-06-17T04:00:52.484Z,21.24
2018-06-17T04:01:52.530Z,21.25
2018-06-17T04:02:52.550Z,21.3
2018-06-17T04:03:52.580Z,21.25
2018-06-17T04:04:52.310Z,21.24
2018-06-17T04:05:52.635Z,21.21
2018-06-17T04:06:52.109Z,21.21
2018-06-17T04:07:52.647Z,21.21
2018-06-17T04:08:52.428Z,21.21
2018-06-17T04:09:52.705Z,21.17
2018-06-17T04:10:52.443Z,21.22
2018-06-17T04:11:52.753Z,21.18
2018-06-17T04:12:52.773Z,21.21
2018-06-17T04:13:52.815Z,21.18
2018-06-17T04:14:52.807Z,21.15
2018-06-17T04:15:52.616Z,21.18
2018-06-17T04:16:52.869Z,21.21
2018-06-17T04:17:52.875Z,21.18
2018-06-17T04:18:52.910Z,21.21
2018-06-17T04:19:52.649Z,21.2
2018-06-17T04:20:52.984Z,21.25
2018-06-17T04:21:52.994Z,21.15
2018-06-17T04:22:52.746Z,21.12
2018-06-17T04:23:53.057Z,21.11
2018-06-17T04:24:53.074Z,21.14
2018-06-17T04:25:53.060Z,21.07
2018-06-17T04:26:53.118Z,21.11
2018-06-17T04:27:53.113Z,21.15
2018-06-17T04:28:52.862Z,21.09
2018-06-17T04:29:53.168Z,21.18
2018-06-17T04:30:53.206Z,21.11
2018-06-17T04:31:53.217Z,21.09
2018-06-17T04:32:53.232Z,21.12
2018-06-17T04:33:53.005Z,21.09
2018-06-17T04:34:53.029Z,21.15
2018-06-17T04:35:53.051Z,21.11
2018-06-17T04:36:53.334Z,21.14
2018-06-17T04:37:53.337Z,21.15
2018-06-17T04:38:53.379Z,21.07
2018-06-17T04:39:53.383Z,21.12
2018-06-17T04:40:53.174Z,21.12
2018-06-17T04:41:53.189Z,21.09
2018-06-17T04:42:53.453Z,21.11
2018-06-17T04:43:53.518Z,21.12
2018-06-17T04:44:53.496Z,21.09
2018-06-17T04:45:53.268Z,21.11
2018-06-17T04:46:53.272Z,21.18
2018-06-17T04:47:53.302Z,21.12
2018-06-17T04:48:53.595Z,21.17
2018-06-17T04:49:53.348Z,21.07
2018-06-17T04:50:53.668Z,21.14
2018-06-17T04:51:53.691Z,21.15
2018-06-17T04:52:53.690Z,21.12
2018-06-17T04:53:53.460Z,21.14
2018-06-17T04:54:53.763Z,21.07
2018-06-17T04:55:53.501Z,21.11
2018-06-17T04:56:53.793Z,21.12
2018-06-17T04:57:53.822Z,21.11
2018-06-17T04:58:53.817Z,21.12
2018-06-17T04:59:53.619Z,21.11
2018-06-17T05:00:53.356Z,21.15
2018-06-17T05:01:53.994Z,21.15
2018-06-17T05:02:53.924Z,21.2
2018-06-17T05:03:53.943Z,21.15
2018-06-17T05:04:53.992Z,21.17
2018-06-17T05:05:53.991Z,21.24
2018-06-17T05:06:54.008Z,21.17
2018-06-17T05:07:54.046Z,21.2
2018-06-17T05:08:54.069Z,21.22
2018-06-17T05:09:54.083Z,21.2
2018-06-17T05:10:54.133Z,21.2
2018-06-17T05:11:54.147Z,21.21
2018-06-17T05:12:54.177Z,21.21
2018-06-17T05:13:53.921Z,21.22
2018-06-17T05:14:53.660Z,21.15
2018-06-17T05:15:54.219Z,21.24
2018-06-17T05:16:54.238Z,21.24
2018-06-17T05:17:54.017Z,21.27
2018-06-17T05:18:54.301Z,21.27
2018-06-17T05:19:54.058Z,21.21
2018-06-17T05:20:54.362Z,21.27
2018-06-17T05:21:54.375Z,21.24
2018-06-17T05:22:54.133Z,21.27
2018-06-17T05:23:54.175Z,21.27
2018-06-17T05:24:53.908Z,21.24
2018-06-17T05:25:54.480Z,21.24
2018-06-17T05:26:54.210Z,21.27
2018-06-17T05:27:54.235Z,21.27
2018-06-17T05:28:54.547Z,21.25
2018-06-17T05:29:54.567Z,21.32
2018-06-17T05:30:54.563Z,21.27
2018-06-17T05:31:54.337Z,21.33
2018-06-17T05:32:54.655Z,21.32
2018-06-17T05:33:54.511Z,21.39
2018-06-17T05:34:54.406Z,21.4
2018-06-17T05:35:54.432Z,21.42
2018-06-17T05:36:54.523Z,21.42
2018-06-17T05:37:54.725Z,21.37
2018-06-17T05:38:54.782Z,21.39
2018-06-17T05:39:54.810Z,21.37
2018-06-17T05:40:54.867Z,21.33
2018-06-17T05:41:54.562Z,21.39
2018-06-17T05:42:54.881Z,21.43
2018-06-17T05:43:54.644Z,21.4
2018-06-17T05:44:54.974Z,21.37
2018-06-17T05:45:54.933Z,21.37
2018-06-17T05:46:54.395Z,21.48
2018-06-17T05:47:54.961Z,21.45
2018-06-17T05:48:54.980Z,21.45
2018-06-17T05:49:54.738Z,21.55
2018-06-17T05:50:55.019Z,21.46
2018-06-17T05:51:54.781Z,21.58
2018-06-17T05:52:55.107Z,21.6
2018-06-17T05:53:55.091Z,21.6
2018-06-17T05:54:55.141Z,21.55
2018-06-17T05:55:54.896Z,21.58
2018-06-17T05:56:55.184Z,21.61
2018-06-17T05:57:55.216Z,21.61
2018-06-17T05:58:55.213Z,21.57
2018-06-17T05:59:54.992Z,21.61
2018-06-17T06:00:55.012Z,21.61
2018-06-17T06:01:55.309Z,21.64
2018-06-17T06:02:55.295Z,21.6
2018-06-17T06:03:55.561Z,21.7
2018-06-17T06:04:55.406Z,21.7
2018-06-17T06:05:55.417Z,21.69
2018-06-17T06:06:55.429Z,21.67
2018-06-17T06:07:55.465Z,21.7
2018-06-17T06:08:55.205Z,21.69
2018-06-17T06:09:54.948Z,21.72
2018-06-17T06:10:55.227Z,21.69
2018-06-17T06:11:55.245Z,21.72
2018-06-17T06:12:55.549Z,21.67
2018-06-17T06:13:55.298Z,21.69
2018-06-17T06:14:55.688Z,21.64
2018-06-17T06:15:55.618Z,21.79
2018-06-17T06:16:55.637Z,21.8
2018-06-17T06:17:55.409Z,21.8
2018-06-17T06:18:55.433Z,21.8
2018-06-17T06:19:55.157Z,21.88
2018-06-17T06:20:55.745Z,21.88
2018-06-17T06:21:55.759Z,21.88
2018-06-17T06:22:55.770Z,21.82
2018-06-17T06:23:55.519Z,21.83
2018-06-17T06:24:55.842Z,21.88
2018-06-17T06:25:55.840Z,21.89
2018-06-17T06:26:55.899Z,21.89
2018-06-17T06:27:55.877Z,21.92
2018-06-17T06:28:55.917Z,21.92
2018-06-17T06:29:55.938Z,21.92
2018-06-17T06:30:56.032Z,21.95
2018-06-17T06:31:55.744Z,21.99
2018-06-17T06:32:56.010Z,22
2018-06-17T06:33:56.039Z,21.98
2018-06-17T06:34:56.057Z,22.02
2018-06-17T06:35:56.085Z,21.98
2018-06-17T06:36:55.827Z,22.02
2018-06-17T06:37:56.567Z,21.99
2018-06-17T06:38:55.618Z,22.02
2018-06-17T06:39:56.158Z,22.02
2018-06-17T06:40:56.201Z,22.04
2018-06-17T06:41:56.209Z,22.15
2018-06-17T06:42:56.037Z,22.14
2018-06-17T06:43:56.252Z,22.18
2018-06-17T06:44:56.291Z,22.15
2018-06-17T06:45:56.305Z,22.28
2018-06-17T06:46:56.322Z,22.2
2018-06-17T06:47:55.807Z,22.23
2018-06-17T06:48:56.387Z,22.2
2018-06-17T06:49:56.514Z,22.23
2018-06-17T06:50:56.588Z,22.26
2018-06-17T06:51:56.437Z,22.3
2018-06-17T06:52:56.220Z,22.36
2018-06-17T06:53:56.241Z,22.36
2018-06-17T06:54:56.507Z,22.39
2018-06-17T06:55:56.535Z,22.39
2018-06-17T06:56:56.597Z,22.38
2018-06-17T06:57:56.330Z,22.44
2018-06-17T06:58:56.359Z,22.5
2018-06-17T06:59:56.383Z,22.48
2018-06-17T07:00:56.672Z,22.39
2018-06-17T07:01:56.699Z,22.54
2018-06-17T07:02:56.713Z,22.48
2018-06-17T07:03:56.746Z,22.47
2018-06-17T07:04:56.496Z,22.53
2018-06-17T07:05:56.533Z,22.53
2018-06-17T07:06:56.823Z,22.6
2018-06-17T07:07:56.828Z,22.6
2018-06-17T07:08:56.866Z,22.65
2018-06-17T07:09:56.995Z,22.65
2018-06-17T07:10:56.913Z,22.66
2018-06-17T07:11:56.653Z,22.72
2018-06-17T07:12:56.952Z,22.72
2018-06-17T07:13:56.699Z,22.69
2018-06-17T07:14:56.997Z,22.73
2018-06-17T07:15:57.022Z,22.8
2018-06-17T07:16:57.184Z,22.93
2018-06-17T07:17:56.808Z,22.91
2018-06-17T07:18:57.085Z,22.93
2018-06-17T07:19:57.183Z,23
2018-06-17T07:20:56.863Z,23
2018-06-17T07:21:57.166Z,23.06
2018-06-17T07:22:56.932Z,23.1
2018-06-17T07:23:57.195Z,23.15
2018-06-17T07:24:57.301Z,23.24
2018-06-17T07:25:57.454Z,23.23
2018-06-17T07:26:57.284Z,23.34
2018-06-17T07:27:57.283Z,23.37
2018-06-17T07:28:57.308Z,23.41
2018-06-17T07:29:57.371Z,23.48
2018-06-17T07:30:57.105Z,23.55
2018-06-17T07:31:57.401Z,23.56
2018-06-17T07:32:57.448Z,23.63
2018-06-17T07:33:57.170Z,23.66
2018-06-17T07:34:57.473Z,23.74
2018-06-17T07:35:57.239Z,23.74
2018-06-17T07:36:57.521Z,23.76
2018-06-17T07:37:57.368Z,23.78
2018-06-17T07:38:57.550Z,23.86
2018-06-17T07:39:57.612Z,23.93
2018-06-17T07:40:57.617Z,24.01
2018-06-17T07:41:57.642Z,24.14
2018-06-17T07:42:57.681Z,24.14
2018-06-17T07:43:57.575Z,24.2
2018-06-17T07:44:57.714Z,24.38
2018-06-17T07:45:57.730Z,24.42
2018-06-17T07:46:57.757Z,24.39
2018-06-17T07:47:57.788Z,24.55
2018-06-17T07:48:57.819Z,24.55
2018-06-17T07:49:57.847Z,24.63
2018-06-17T07:50:57.583Z,24.69
2018-06-17T07:51:57.610Z,24.74
2018-06-17T07:52:57.916Z,24.8
2018-06-17T07:53:57.914Z,24.7
2018-06-17T07:54:57.954Z,24.85
2018-06-17T07:55:57.995Z,24.88
2018-06-17T07:56:57.981Z,24.84
2018-06-17T07:57:58.013Z,24.96
2018-06-17T07:58:57.796Z,24.98
2018-06-17T07:59:58.056Z,24.99
2018-06-17T08:00:57.853Z,25.08
2018-06-17T08:01:58.141Z,25.14
2018-06-17T08:02:58.126Z,25.13
2018-06-17T08:03:58.174Z,25.18
2018-06-17T08:04:58.204Z,25.26
2018-06-17T08:05:58.217Z,25.36
2018-06-17T08:06:57.964Z,25.41
2018-06-17T08:07:58.271Z,25.46
2018-06-17T08:08:58.312Z,25.55
2018-06-17T08:09:58.335Z,25.62
2018-06-17T08:10:58.287Z,25.66
2018-06-17T08:11:58.366Z,25.69
2018-06-17T08:12:58.395Z,25.7
2018-06-17T08:13:58.149Z,25.81
2018-06-17T08:14:58.164Z,25.91
2018-06-17T08:15:58.201Z,25.99
2018-06-17T08:16:58.489Z,26.05
2018-06-17T08:17:58.507Z,26.22
2018-06-17T08:18:58.569Z,26.23
2018-06-17T08:19:58.565Z,26.31
2018-06-17T08:20:58.592Z,26.43
2018-06-17T08:21:58.613Z,26.51
2018-06-17T08:22:58.650Z,26.52
2018-06-17T08:23:58.376Z,26.6
2018-06-17T08:24:58.708Z,26.62
2018-06-17T08:25:58.719Z,26.73
2018-06-17T08:26:58.485Z,26.77
2018-06-17T08:27:58.236Z,26.8
2018-06-17T08:28:58.535Z,26.88
2018-06-17T08:29:58.812Z,26.9
2018-06-17T08:30:58.846Z,26.93
2018-06-17T08:31:58.613Z,26.92
2018-06-17T08:32:58.889Z,26.99
2018-06-17T08:33:58.909Z,27.02
2018-06-17T08:34:58.936Z,27.07
2018-06-17T08:35:58.961Z,27.12
2018-06-17T08:36:58.994Z,27.21
2018-06-17T08:37:59.055Z,27.25
2018-06-17T08:38:59.065Z,27.26
2018-06-17T08:39:59.054Z,27.25
2018-06-17T08:40:59.229Z,27.37
2018-06-17T08:41:59.136Z,27.45
2018-06-17T08:42:59.161Z,27.4
2018-06-17T08:43:59.175Z,27.48
2018-06-17T08:44:58.933Z,27.51
2018-06-17T08:45:58.962Z,27.63
2018-06-17T08:46:59.116Z,27.71
2018-06-17T08:47:58.740Z,27.75
2018-06-17T08:48:59.044Z,27.78
2018-06-17T08:49:59.342Z,27.93
2018-06-17T08:50:59.366Z,28.01
2018-06-17T08:51:59.390Z,28.08
2018-06-17T08:52:59.144Z,28.11
2018-06-17T08:53:59.180Z,28.25
2018-06-17T08:54:59.461Z,28.38
2018-06-17T08:55:59.500Z,28.41
2018-06-17T08:56:59.252Z,28.48
2018-06-17T08:57:59.517Z,28.56
2018-06-17T08:58:59.573Z,28.51
2018-06-17T08:59:59.598Z,28.63
2018-06-17T09:00:59.626Z,28.76
2018-06-17T09:01:59.654Z,28.69
2018-06-17T09:02:59.403Z,28.75
2018-06-17T09:03:59.429Z,28.78
2018-06-17T09:04:59.440Z,28.79
2018-06-17T09:05:59.957Z,28.79
2018-06-17T09:06:59.774Z,28.84
2018-06-17T09:07:59.527Z,28.89
2018-06-17T09:08:59.844Z,28.96
2018-06-17T09:09:59.858Z,29.04
2018-06-17T09:10:59.864Z,29.13
2018-06-17T09:11:59.908Z,29.16
2018-06-17T09:12:59.956Z,29.22
2018-06-17T09:13:59.947Z,29.29
2018-06-17T09:15:00.015Z,29.29
2018-06-17T09:16:00.035Z,29.36
2018-06-17T09:16:59.784Z,29.38
2018-06-17T09:17:59.806Z,29.41
2018-06-17T09:18:59.816Z,29.53
2018-06-17T09:20:00.135Z,29.57
2018-06-17T09:20:59.711Z,29.54
2018-06-17T09:22:00.197Z,29.57
2018-06-17T09:22:59.956Z,29.72
2018-06-17T09:24:00.229Z,29.73
2018-06-17T09:24:59.987Z,29.78
2018-06-17T09:26:00.287Z,29.87
2018-06-17T09:27:00.299Z,29.93
2018-06-17T09:28:00.339Z,29.95
2018-06-17T09:29:00.372Z,30.05
2018-06-17T09:30:00.129Z,30.08
2018-06-17T09:31:00.440Z,30.16
2018-06-17T09:32:00.718Z,30.25
2018-06-17T09:33:00.480Z,30.28
2018-06-17T09:34:00.515Z,30.31
2018-06-17T09:35:00.275Z,30.4
2018-06-17T09:36:00.565Z,30.51
2018-06-17T09:37:00.598Z,30.5
2018-06-17T09:38:00.400Z,30.63
2018-06-17T09:39:00.667Z,30.62
2018-06-17T09:40:00.399Z,30.72
2018-06-17T09:41:00.450Z,30.75
2018-06-17T09:42:00.746Z,30.72
2018-06-17T09:43:00.490Z,30.87
2018-06-17T09:44:00.520Z,30.8
2018-06-17T09:45:00.809Z,30.88
2018-06-17T09:46:00.575Z,30.87
2018-06-17T09:47:00.620Z,30.85
2018-06-17T09:48:00.373Z,30.84
2018-06-17T09:49:00.661Z,30.84
2018-06-17T09:50:00.698Z,30.87
2018-06-17T09:51:00.989Z,30.87
2018-06-17T09:52:01.142Z,30.9
2018-06-17T09:53:15.745Z,30.87
2018-06-17T09:54:01.085Z,30.87
2018-06-17T09:55:01.096Z,30.8
2018-06-17T09:56:00.852Z,30.84
2018-06-17T09:57:01.147Z,30.85
2018-06-17T09:58:00.915Z,30.73
2018-06-17T09:59:01.224Z,30.83
2018-06-17T10:00:01.261Z,30.81
2018-06-17T10:01:01.265Z,30.84
2018-06-17T10:02:01.303Z,30.81
2018-06-17T10:03:01.344Z,30.87
2018-06-17T10:04:01.073Z,30.81
2018-06-17T10:05:01.364Z,30.84
2018-06-17T10:06:01.420Z,30.85
2018-06-17T10:07:01.159Z,30.9
2018-06-17T10:08:01.448Z,30.88
2018-06-17T10:09:01.263Z,30.91
2018-06-17T10:10:00.987Z,31.02
2018-06-17T10:11:01.569Z,31.03
2018-06-17T10:12:01.600Z,31.09
2018-06-17T10:13:01.346Z,31.12
2018-06-17T10:14:01.366Z,31.17
2018-06-17T10:15:01.411Z,31.22
2018-06-17T10:16:01.937Z,31.27
2018-06-17T10:17:01.722Z,31.28
2018-06-17T10:18:01.816Z,31.4
2018-06-17T10:19:01.514Z,31.42
2018-06-17T10:20:01.800Z,31.49
2018-06-17T10:21:01.841Z,31.58
2018-06-17T10:22:01.872Z,31.66
2018-06-17T10:23:01.613Z,31.71
2018-06-17T10:24:01.925Z,31.78
2018-06-17T10:25:01.953Z,31.93
2018-06-17T10:26:01.716Z,31.93
2018-06-17T10:27:02.007Z,31.92
2018-06-17T10:28:01.776Z,31.96
2018-06-17T10:29:02.063Z,32
2018-06-17T10:30:01.560Z,32.08
2018-06-17T10:31:02.127Z,32.12
2018-06-17T10:32:02.148Z,32.16
2018-06-17T10:33:01.900Z,32.19
2018-06-17T10:34:01.947Z,32.3
2018-06-17T10:35:02.246Z,32.31
2018-06-17T10:36:02.002Z,32.4
2018-06-17T10:37:02.372Z,32.43
2018-06-17T10:38:02.399Z,32.51
2018-06-17T10:39:01.823Z,32.52
2018-06-17T10:40:02.400Z,32.6
2018-06-17T10:41:02.406Z,32.63
2018-06-17T10:42:02.464Z,32.6
2018-06-17T10:43:02.489Z,32.68
2018-06-17T10:44:02.499Z,32.68
2018-06-17T10:45:02.529Z,32.67
2018-06-17T10:46:02.555Z,32.7
2018-06-17T10:47:02.589Z,32.67
2018-06-17T10:48:02.101Z,32.7
2018-06-17T10:49:02.704Z,32.74
2018-06-17T10:50:02.691Z,32.73
2018-06-17T10:51:02.473Z,32.75
2018-06-17T10:52:02.505Z,32.86
2018-06-17T10:53:02.497Z,32.95
2018-06-17T10:54:02.569Z,33.02
2018-06-17T10:55:02.555Z,33.07
2018-06-17T10:56:03.692Z,33.15
2018-06-17T10:57:02.628Z,33.24
2018-06-17T10:58:02.403Z,33.36
2018-06-17T10:59:02.691Z,33.4
2018-06-17T11:00:03.005Z,33.42
2018-06-17T11:01:03.029Z,33.55
2018-06-17T11:02:03.046Z,33.55
2018-06-17T11:03:03.115Z,33.69
2018-06-17T11:04:03.122Z,33.71
2018-06-17T11:05:02.886Z,33.64
2018-06-17T11:06:02.642Z,33.68
2018-06-17T11:07:02.945Z,33.69
2018-06-17T11:08:02.976Z,33.68
2018-06-17T11:09:03.275Z,33.65
2018-06-17T11:10:03.325Z,33.68
2018-06-17T11:11:03.328Z,33.77
2018-06-17T11:12:03.082Z,33.84
2018-06-17T11:13:03.568Z,33.81
2018-06-17T11:14:03.425Z,33.84
2018-06-17T11:15:03.443Z,33.9
2018-06-17T11:16:03.479Z,33.89
2018-06-17T11:17:03.490Z,33.92
2018-06-17T11:18:03.041Z,33.87
2018-06-17T11:19:03.601Z,33.9
2018-06-17T11:20:03.590Z,33.84
2018-06-17T11:21:03.656Z,33.86
2018-06-17T11:22:03.386Z,33.87
2018-06-17T11:23:03.689Z,33.86
2018-06-17T11:24:03.742Z,33.84
2018-06-17T11:25:03.533Z,33.83
2018-06-17T11:26:03.518Z,33.71
2018-06-17T11:27:03.826Z,33.81
2018-06-17T11:28:03.599Z,33.77
2018-06-17T11:29:03.614Z,33.73
2018-06-17T11:30:03.913Z,33.67
2018-06-17T11:31:03.414Z,33.68
2018-06-17T11:32:03.726Z,33.61
2018-06-17T11:33:03.727Z,33.58
2018-06-17T11:34:03.769Z,33.5
2018-06-17T11:35:03.790Z,33.42
2018-06-17T11:36:03.562Z,33.4
2018-06-17T11:37:03.588Z,33.43
2018-06-17T11:38:04.189Z,33.39
2018-06-17T11:39:04.627Z,33.43
2018-06-17T11:40:04.210Z,33.45
2018-06-17T11:41:03.987Z,33.45
2018-06-17T11:42:04.309Z,33.31
2018-06-17T11:43:04.330Z,33.31
2018-06-17T11:44:04.072Z,33.31
2018-06-17T11:45:04.367Z,33.28
2018-06-17T11:46:04.432Z,33.27
2018-06-17T11:47:04.453Z,33.24
2018-06-17T11:48:04.193Z,33.28
2018-06-17T11:49:03.979Z,33.19
2018-06-17T11:50:04.279Z,33.2
2018-06-17T11:51:04.394Z,33.19
2018-06-17T11:52:04.320Z,33.24
2018-06-17T11:53:04.095Z,33.24
2018-06-17T11:54:04.410Z,33.3
2018-06-17T11:55:04.441Z,33.23
2018-06-17T11:56:04.463Z,33.37
2018-06-17T11:57:04.221Z,33.37
2018-06-17T11:58:04.688Z,33.37
2018-06-17T11:59:04.546Z,33.39
2018-06-17T12:00:04.589Z,33.47
2018-06-17T12:01:04.866Z,33.5
2018-06-17T12:02:04.372Z,33.47
2018-06-17T12:03:04.692Z,33.58
2018-06-17T12:04:04.719Z,33.55
2018-06-17T12:05:05.003Z,33.55
2018-06-17T12:06:05.045Z,33.65
2018-06-17T12:07:05.083Z,33.61
2018-06-17T12:08:05.121Z,33.59
2018-06-17T12:09:05.131Z,33.69
2018-06-17T12:10:04.912Z,33.58
2018-06-17T12:11:04.935Z,33.58
2018-06-17T12:12:04.943Z,33.58
2018-06-17T12:13:05.259Z,33.55
2018-06-17T12:14:04.753Z,33.58
2018-06-17T12:15:05.340Z,33.69
2018-06-17T12:16:04.846Z,33.67
2018-06-17T12:17:05.121Z,33.73
2018-06-17T12:18:05.442Z,33.8
2018-06-17T12:19:05.191Z,33.87
2018-06-17T12:20:05.213Z,33.95
2018-06-17T12:21:05.505Z,33.94
2018-06-17T12:22:05.294Z,34.05
2018-06-17T12:23:05.580Z,34.1
2018-06-17T12:24:05.593Z,34.16
2018-06-17T12:25:05.628Z,34.18
2018-06-17T12:26:05.399Z,34.24
2018-06-17T12:27:05.713Z,34.2
2018-06-17T12:28:05.478Z,34.23
2018-06-17T12:29:05.488Z,34.3
2018-06-17T12:30:05.822Z,34.38
2018-06-17T12:31:05.815Z,34.36
2018-06-17T12:32:05.620Z,34.54
2018-06-17T12:33:05.906Z,34.61
2018-06-17T12:34:05.657Z,34.66
2018-06-17T12:35:05.966Z,34.8
2018-06-17T12:36:05.739Z,34.81
2018-06-17T12:37:06.022Z,34.88
2018-06-17T12:38:05.773Z,34.99
2018-06-17T12:39:05.817Z,34.96
2018-06-17T12:40:05.869Z,35.14
2018-06-17T12:41:05.885Z,35.26
2018-06-17T12:42:05.926Z,35.29
2018-06-17T12:43:05.958Z,35.27
2018-06-17T12:44:05.969Z,35.46
2018-06-17T12:45:06.022Z,35.55
2018-06-17T12:46:06.313Z,35.58
2018-06-17T12:47:06.345Z,35.6
2018-06-17T12:48:06.105Z,35.78
2018-06-17T12:49:06.204Z,35.8
2018-06-17T12:50:06.449Z,35.9
2018-06-17T12:51:06.192Z,35.89
2018-06-17T12:52:06.246Z,36
2018-06-17T12:53:06.258Z,36
2018-06-17T12:54:06.294Z,36.01
2018-06-17T12:55:06.597Z,35.98
2018-06-17T12:56:06.367Z,35.97
2018-06-17T12:57:06.692Z,36